Time;durP1;ratioP1;P1;durP2;ratioP2;P2;SDS_P1;SDS_P2;PMS_P1;PMS_P2;Temp;Humidity;BMP_temperature;BMP_pressure;BME280_temperature;BME280_humidity;BME280_pressure;Samples;Min_cycle;Max_cycle;Signal;HPM_P1;HPM_P2
2024/01/19 00:05:38;;;;;;;0.10;0.10;;;;;;;-5.15;73.26;100491.06;15733078;28;20165;-47
2024/01/19 00:13:12;;;;;;;0.10;0.10;;;;;;;-5.41;73.44;100488.66;15731021;28;20041;-46
2024/01/19 00:20:47;;;;;;;0.10;0.10;;;;;;;-5.13;72.94;100494.41;15732003;28;20048;-47
2024/01/19 00:28:22;;;;;;;0.20;0.20;;;;;;;-5.34;71.85;100496.84;15732236;28;20136;-47
2024/01/19 00:35:57;;;;;;;0.25;0.25;;;;;;;-5.56;72.54;100489.75;15763767;28;20589;-48
2024/01/19 00:43:31;;;;;;;0.10;0.10;;;;;;;-5.54;73.26;100500.94;15713178;28;20040;-46
2024/01/19 00:51:06;;;;;;;0.10;0.10;;;;;;;-5.51;74.88;100502.50;15729929;28;20049;-48
2024/01/19 00:58:40;;;;;;;0.10;0.10;;;;;;;-5.45;74.79;100502.88;15730515;28;20066;-48
2024/01/19 01:06:16;;;;;;;0.00;0.00;;;;;;;-5.46;74.47;100510.81;15722898;28;20511;-48
2024/01/19 01:13:49;;;;;;;0.15;0.15;;;;;;;-5.42;74.04;100520.94;15762519;28;20478;-47
2024/01/19 01:21:25;;;;;;;0.20;0.20;;;;;;;-5.47;74.48;100514.41;15729977;28;20064;-49
2024/01/19 01:28:59;;;;;;;0.03;0.03;;;;;;;-5.25;74.49;100538.03;15729676;28;20047;-48
2024/01/19 01:36:33;;;;;;;0.10;0.10;;;;;;;-5.08;75.05;100549.00;15728110;28;20037;-47
2024/01/19 01:44:06;;;;;;;0.03;0.03;;;;;;;-4.95;76.64;100552.38;15732054;28;20592;-49
2024/01/19 01:51:43;;;;;;;0.08;0.08;;;;;;;-4.80;75.13;100553.84;15726027;28;20041;-47
2024/01/19 01:59:19;;;;;;;0.10;0.10;;;;;;;-5.19;76.21;100542.78;15729997;28;20444;-52
2024/01/19 02:06:56;;;;;;;0.10;0.10;;;;;;;-4.85;76.23;100557.75;15740826;28;20470;-51
2024/01/19 02:14:29;;;;;;;0.10;0.10;;;;;;;-4.83;74.21;100556.69;15738528;28;20032;-47
2024/01/19 02:22:04;;;;;;;0.00;0.00;;;;;;;-5.17;74.66;100564.47;15738748;28;20128;-50
2024/01/19 02:29:49;;;;;;;0.08;0.08;;;;;;;-5.36;76.56;100569.38;15739297;28;20051;-49
2024/01/19 02:37:23;;;;;;;0.00;0.00;;;;;;;-5.49;75.99;100577.28;15737802;28;20056;-47
2024/01/19 02:44:59;;;;;;;0.10;0.10;;;;;;;-5.30;75.36;100579.38;15736750;28;20045;-52
2024/01/19 02:52:33;;;;;;;0.10;0.10;;;;;;;-5.19;76.12;100584.66;15738099;28;20032;-47
2024/01/19 03:00:10;;;;;;;0.00;0.00;;;;;;;-4.71;75.55;100583.72;15737221;28;20185;-47
2024/01/19 03:07:46;;;;;;;0.10;0.10;;;;;;;-4.88;76.55;100591.06;15734539;28;20459;-49
2024/01/19 03:15:22;;;;;;;0.00;0.00;;;;;;;-4.65;77.43;100596.38;15736137;28;20041;-49
2024/01/19 03:22:56;;;;;;;0.00;0.00;;;;;;;-4.37;75.84;100587.25;15734788;28;20047;-49
2024/01/19 03:30:33;;;;;;;0.10;0.10;;;;;;;-4.12;75.04;100596.66;15735378;28;20507;-48
2024/01/19 03:38:06;;;;;;;0.00;0.00;;;;;;;-4.04;75.55;100594.28;15734683;28;20165;-50
2024/01/19 03:45:42;;;;;;;0.00;0.00;;;;;;;-4.08;74.63;100589.38;15733771;28;20041;-49
2024/01/19 03:53:16;;;;;;;0.00;0.00;;;;;;;-3.86;74.34;100602.47;15731666;28;20070;-48
2024/01/19 04:00:52;;;;;;;0.63;0.63;;;;;;;-4.06;75.81;100595.31;15732933;28;20051;-49
2024/01/19 04:08:27;;;;;;;0.00;0.00;;;;;;;-4.03;75.35;100595.09;15731783;28;20068;-49
2024/01/19 04:16:02;;;;;;;0.10;0.10;;;;;;;-3.92;73.76;100602.94;15733082;28;20244;-53
2024/01/19 04:23:36;;;;;;;0.00;0.00;;;;;;;-3.90;73.12;100619.41;15732033;28;20090;-50
2024/01/19 04:31:11;;;;;;;0.10;0.10;;;;;;;-4.34;74.23;100614.97;15730226;28;20039;-51
2024/01/19 04:38:48;;;;;;;0.00;0.00;;;;;;;-4.87;76.93;100632.00;15731828;28;20039;-50
2024/01/19 04:46:24;;;;;;;0.05;0.05;;;;;;;-4.58;75.46;100636.84;15723903;28;20041;-48
2024/01/19 04:53:59;;;;;;;0.00;0.00;;;;;;;-4.37;74.87;100637.84;15730548;28;20037;-47
2024/01/19 05:01:33;;;;;;;0.13;0.13;;;;;;;-4.36;77.31;100633.44;15729403;28;20141;-49
2024/01/19 05:09:07;;;;;;;0.00;0.00;;;;;;;-4.19;75.48;100653.13;15732111;28;20045;-51
2024/01/19 05:16:42;;;;;;;0.00;0.00;;;;;;;-4.36;76.46;100651.78;15731154;28;20374;-51
2024/01/19 05:24:15;;;;;;;0.08;0.08;;;;;;;-4.16;76.21;100635.34;15722397;28;20041;-50
2024/01/19 05:31:51;;;;;;;0.10;0.10;;;;;;;-4.01;76.07;100669.19;15730594;28;20204;-49
2024/01/19 05:39:24;;;;;;;0.00;0.00;;;;;;;-4.34;76.78;100675.22;15738211;28;20118;-52
2024/01/19 05:47:00;;;;;;;0.00;0.00;;;;;;;-4.21;76.13;100670.72;15742532;28;20044;-51
2024/01/19 05:54:38;;;;;;;0.00;0.00;;;;;;;-4.34;76.35;100670.00;15741457;28;20052;-50
2024/01/19 06:02:14;;;;;;;0.00;0.00;;;;;;;-4.34;77.49;100688.34;15742394;28;20049;-50
2024/01/19 06:09:49;;;;;;;0.00;0.00;;;;;;;-4.35;77.92;100682.25;15741394;28;20504;-49
2024/01/19 06:17:26;;;;;;;0.00;0.00;;;;;;;-4.18;76.44;100696.72;15737857;28;20048;-52
2024/01/19 06:25:00;;;;;;;0.00;0.00;;;;;;;-3.87;75.34;100701.28;15740366;28;20414;-49
2024/01/19 06:32:35;;;;;;;0.00;0.00;;;;;;;-3.97;74.66;100710.78;15740361;28;20053;-50
2024/01/19 06:40:10;;;;;;;0.00;0.00;;;;;;;-3.60;74.66;100723.69;15738104;28;20382;-52
2024/01/19 06:47:45;;;;;;;0.00;0.00;;;;;;;-3.94;76.49;100735.94;15737767;28;20087;-49
2024/01/19 06:55:19;;;;;;;0.00;0.00;;;;;;;-3.72;75.75;100735.16;15731691;28;20041;-52
2024/01/19 07:02:56;;;;;;;0.22;0.22;;;;;;;-3.54;75.54;100738.09;15736144;28;20122;-50
2024/01/19 07:10:29;;;;;;;0.00;0.00;;;;;;;-3.49;75.89;100742.06;15738073;28;20135;-49
2024/01/19 07:18:06;;;;;;;0.00;0.00;;;;;;;-3.27;75.09;100754.31;15736458;28;20467;-50
2024/01/19 07:25:40;;;;;;;0.22;0.22;;;;;;;-3.54;75.88;100757.34;15736530;28;20079;-49
2024/01/19 07:33:15;;;;;;;0.90;0.47;;;;;;;-3.36;74.79;100778.66;15735684;28;20123;-50
2024/01/19 07:40:49;;;;;;;0.00;0.00;;;;;;;-3.38;74.35;100785.84;15736482;28;20072;-45
2024/01/19 07:48:25;;;;;;;0.00;0.00;;;;;;;-3.57;74.49;100789.03;15713748;28;20045;-45
2024/01/19 07:55:58;;;;;;;0.00;0.00;;;;;;;-2.99;74.44;100802.84;15716716;28;20108;-49
2024/01/19 08:03:33;;;;;;;0.00;0.00;;;;;;;-2.63;75.39;100806.13;15734485;28;20082;-50
2024/01/19 08:11:07;;;;;;;0.00;0.00;;;;;;;-2.23;75.96;100800.28;15733943;28;20102;-46
2024/01/19 08:18:42;;;;;;;0.00;0.00;;;;;;;-2.12;76.14;100819.47;15735249;28;20048;-45
2024/01/19 08:26:19;;;;;;;0.10;0.10;;;;;;;-1.87;76.10;100818.25;15734652;28;20527;-46
2024/01/19 08:33:54;;;;;;;0.00;0.00;;;;;;;-1.55;74.88;100818.19;15734092;28;20071;-46
2024/01/19 08:41:31;;;;;;;0.00;0.00;;;;;;;-1.38;74.97;100844.88;15732963;28;20278;-51
2024/01/19 08:49:06;;;;;;;0.00;0.00;;;;;;;-1.16;75.19;100839.44;15734414;28;20041;-49
2024/01/19 08:56:39;;;;;;;0.00;0.00;;;;;;;-1.02;74.63;100853.25;15732937;28;20032;-48
2024/01/19 09:04:15;;;;;;;0.00;0.00;;;;;;;-0.69;72.36;100863.47;15734346;28;20481;-46
2024/01/19 09:11:51;;;;;;;0.00;0.00;;;;;;;-0.32;72.12;100870.78;15738845;28;20051;-46
2024/01/19 09:19:27;;;;;;;0.00;0.00;;;;;;;0.01;70.57;100877.47;15747050;28;20040;-47
2024/01/19 09:27:04;;;;;;;0.00;0.00;;;;;;;0.56;69.44;100883.00;15745718;28;20123;-47
2024/01/19 09:34:41;;;;;;;0.10;0.10;;;;;;;0.45;68.87;100891.06;15744182;28;20040;-51
2024/01/19 09:42:23;;;;;;;0.00;0.00;;;;;;;1.01;66.84;100900.78;15744404;28;20450;-45
2024/01/19 09:50:04;;;;;;;0.10;0.10;;;;;;;1.68;64.85;100902.31;15744548;28;20041;-50
2024/01/19 09:57:44;;;;;;;0.03;0.03;;;;;;;2.13;63.38;100919.97;15743060;28;20487;-46
2024/01/19 10:05:21;;;;;;;0.03;0.03;;;;;;;2.12;63.42;100918.31;15745215;28;20044;-51
2024/01/19 10:12:55;;;;;;;1.58;1.48;;;;;;;2.48;62.96;100935.03;15744249;28;20408;-49
2024/01/19 10:20:32;;;;;;;0.43;0.43;;;;;;;2.08;63.08;100919.59;15743608;28;20347;-46
2024/01/19 10:28:06;;;;;;;0.88;0.85;;;;;;;2.53;63.32;100969.84;15743773;28;20060;-47
2024/01/19 10:35:42;;;;;;;0.32;0.32;;;;;;;2.55;63.16;100977.63;15742379;28;20045;-46
2024/01/19 10:43:23;;;;;;;0.45;0.45;;;;;;;2.30;64.02;100987.16;15741632;28;20049;-48
2024/01/19 10:51:03;;;;;;;0.08;0.08;;;;;;;2.57;62.45;100996.88;15739809;28;20055;-54
2024/01/19 10:58:37;;;;;;;0.00;0.00;;;;;;;2.76;62.54;100995.88;15739943;28;20040;-50
2024/01/19 11:06:13;;;;;;;1.25;0.60;;;;;;;2.70;62.52;101007.88;15738034;28;20120;-49
2024/01/19 11:13:48;;;;;;;1.17;1.08;;;;;;;2.31;63.72;101012.66;15739514;28;20127;-52
2024/01/19 11:21:24;;;;;;;0.00;0.00;;;;;;;2.93;61.62;101026.81;15737501;28;20032;-52
2024/01/19 11:29:01;;;;;;;0.10;0.10;;;;;;;3.15;61.42;101030.81;15738271;28;20461;-50
2024/01/19 11:36:49;;;;;;;0.20;0.20;;;;;;;3.70;59.72;101032.31;15734614;28;20451;-53
2024/01/19 11:44:52;;;;;;;0.00;0.00;;;;;;;3.56;59.94;101031.06;15736973;28;20144;-50
2024/01/19 11:52:41;;;;;;;0.90;0.25;;;;;;;3.55;60.70;101032.91;15693274;28;20051;-47
2024/01/19 12:00:17;;;;;;;0.70;0.65;;;;;;;3.24;61.18;101037.81;15736015;28;20044;-50
2024/01/19 12:08:01;;;;;;;0.05;0.05;;;;;;;3.10;60.69;101046.34;15735160;28;20050;-50
2024/01/19 12:15:37;;;;;;;0.00;0.00;;;;;;;3.97;59.73;101045.38;15735297;28;20139;-50
2024/01/19 12:23:14;;;;;;;0.65;0.52;;;;;;;3.66;60.57;101060.97;15734124;28;20041;-52
2024/01/19 12:30:48;;;;;;;0.10;0.10;;;;;;;3.61;59.88;101071.25;15735457;28;20037;-48
2024/01/19 12:38:23;;;;;;;0.03;0.03;;;;;;;3.66;60.01;101078.72;15734714;28;20033;-48
2024/01/19 12:46:02;;;;;;;0.10;0.10;;;;;;;3.75;60.35;101086.59;15733375;28;20048;-51
2024/01/19 12:53:36;;;;;;;0.00;0.00;;;;;;;4.01;59.23;101085.72;15733828;28;20043;-52
2024/01/19 13:01:17;;;;;;;11.07;0.88;;;;;;;3.48;60.17;101094.69;15732223;28;20367;-48
2024/01/19 13:08:53;;;;;;;0.13;0.13;;;;;;;3.06;61.94;101116.59;15705113;22;20111;-54
2024/01/19 13:16:28;;;;;;;0.05;0.05;;;;;;;3.62;60.83;101112.72;15671996;28;20037;-52
2024/01/19 13:24:03;;;;;;;0.00;0.00;;;;;;;3.42;61.68;101138.63;15672900;28;20076;-53
2024/01/19 13:31:37;;;;;;;0.00;0.00;;;;;;;2.60;63.97;101146.75;15673353;28;20076;-54
2024/01/19 13:39:11;;;;;;;2.40;0.55;;;;;;;2.54;64.02;101151.69;15638152;28;20045;-54
2024/01/19 13:46:45;;;;;;;1.25;1.17;;;;;;;2.18;66.31;101158.66;15671994;28;20045;-54
2024/01/19 13:54:21;;;;;;;4.05;0.85;;;;;;;2.52;64.61;101163.41;15654893;28;20721;-53
2024/01/19 14:01:56;;;;;;;0.28;0.28;;;;;;;2.34;65.54;101187.19;15682255;28;20041;-52
2024/01/19 14:09:31;;;;;;;;;;;;;;;2.53;65.35;101203.00;15665673;28;20041;-52
2024/01/19 14:17:04;;;;;;;24.45;1.38;;;;;;;1.56;68.55;101180.44;15682086;28;19956;-53
2024/01/19 14:24:40;;;;;;;0.20;0.20;;;;;;;1.78;67.70;101210.06;15663735;28;20045;-53
2024/01/19 14:32:15;;;;;;;0.55;0.47;;;;;;;1.42;68.83;101218.72;15683125;28;20128;-53
2024/01/19 14:39:49;;;;;;;0.00;0.00;;;;;;;1.58;68.79;101224.28;15665080;28;20098;-53
2024/01/19 14:47:23;;;;;;;0.00;0.00;;;;;;;1.45;68.33;101232.50;15682191;28;20059;-52
2024/01/19 14:55:03;;;;;;;0.63;0.63;;;;;;;1.99;67.86;101252.22;15680261;28;20072;-53
2024/01/19 15:02:37;;;;;;;0.28;0.28;;;;;;;1.81;68.66;101256.56;15679605;28;20075;-54
2024/01/19 15:10:13;;;;;;;0.10;0.10;;;;;;;1.91;68.58;101257.41;15679912;28;20068;-52
2024/01/19 15:17:51;;;;;;;0.93;0.90;;;;;;;1.17;70.41;101276.47;15678989;28;20401;-51
2024/01/19 15:25:27;;;;;;;0.10;0.10;;;;;;;1.12;70.80;101276.03;15661623;28;20037;-52
2024/01/19 15:33:01;;;;;;;0.10;0.10;;;;;;;0.86;71.51;101293.34;15677680;28;20501;-53
2024/01/19 15:40:36;;;;;;;0.15;0.15;;;;;;;0.84;71.81;101290.84;15677544;28;20045;-53
2024/01/19 15:48:09;;;;;;;0.00;0.00;;;;;;;1.10;71.41;101288.53;15642900;28;20607;-55
2024/01/19 15:55:45;;;;;;;0.15;0.15;;;;;;;1.18;71.09;101309.03;15675579;28;20049;-52
2024/01/19 16:03:20;;;;;;;0.00;0.00;;;;;;;0.75;71.75;101321.53;15675698;28;20123;-51
2024/01/19 16:10:57;;;;;;;0.00;0.00;;;;;;;0.75;71.22;101321.53;15675812;28;20087;-51
2024/01/19 16:18:31;;;;;;;0.10;0.10;;;;;;;0.97;69.94;101320.47;15674265;28;20041;-53
2024/01/19 16:26:06;;;;;;;0.05;0.05;;;;;;;0.73;71.50;101341.94;15656605;28;20510;-54
2024/01/19 16:33:39;;;;;;;0.10;0.10;;;;;;;0.79;72.02;101345.03;15675015;28;20056;-53
2024/01/19 16:41:15;;;;;;;0.10;0.10;;;;;;;0.78;71.75;101346.84;15674145;28;20040;-54
2024/01/19 16:48:49;;;;;;;0.20;0.20;;;;;;;1.09;70.61;101365.34;15674563;28;20037;-54
2024/01/19 16:56:24;;;;;;;0.30;0.30;;;;;;;0.84;70.85;101370.09;15674041;28;20103;-52
2024/01/19 17:03:58;;;;;;;0.40;0.40;;;;;;;1.12;69.44;101371.22;15655699;28;20049;-53
2024/01/19 17:11:33;;;;;;;0.00;0.00;;;;;;;0.76;71.87;101367.28;15674575;28;20397;-56
2024/01/19 17:19:11;;;;;;;0.10;0.10;;;;;;;0.61;72.46;101387.09;15673899;28;20037;-52
2024/01/19 17:26:48;;;;;;;0.00;0.00;;;;;;;0.81;71.84;101383.56;15654286;28;20053;-53
2024/01/19 17:34:23;;;;;;;0.32;0.32;;;;;;;0.50;72.05;101395.88;15681519;28;20679;-53
2024/01/19 17:41:58;;;;;;;0.00;0.00;;;;;;;0.60;70.46;101409.16;15687075;28;20107;-54
2024/01/19 17:49:33;;;;;;;0.38;0.38;;;;;;;0.52;69.86;101420.38;15685680;28;20076;-55
2024/01/19 17:57:08;;;;;;;0.15;0.15;;;;;;;0.41;71.08;101423.91;15681927;28;20524;-53
2024/01/19 18:04:42;;;;;;;0.20;0.20;;;;;;;0.31;69.86;101428.28;15666779;28;20064;-57
2024/01/19 18:12:18;;;;;;;0.25;0.25;;;;;;;0.15;70.78;101441.91;15683624;28;20116;-57
2024/01/19 18:19:52;;;;;;;0.35;0.20;;;;;;;0.20;69.91;101452.09;15681723;28;20520;-53
2024/01/19 18:27:29;;;;;;;0.15;0.15;;;;;;;0.34;70.14;101454.44;15683283;28;20037;-54
2024/01/19 18:35:05;;;;;;;0.13;0.13;;;;;;;0.18;69.82;101475.94;15682860;28;20530;-54
2024/01/19 18:42:42;;;;;;;0.00;0.00;;;;;;;0.08;69.97;101476.84;15682671;28;20064;-54
2024/01/19 18:50:15;;;;;;;0.73;0.55;;;;;;;-0.01;69.39;101489.81;15675100;28;20033;-54
2024/01/19 18:57:50;;;;;;;0.03;0.03;;;;;;;-0.11;69.90;101488.03;15681704;28;20044;-55
2024/01/19 19:05:24;;;;;;;0.00;0.00;;;;;;;-0.35;70.58;101489.03;15690950;22;20057;-56
2024/01/19 19:12:59;;;;;;;0.00;0.00;;;;;;;-0.37;71.13;101509.41;15654839;28;20044;-54
2024/01/19 19:20:33;;;;;;;0.00;0.00;;;;;;;-0.24;70.28;101505.78;15669973;28;20560;-53
2024/01/19 19:28:09;;;;;;;0.10;0.10;;;;;;;-0.40;71.28;101522.84;15672291;28;20080;-52
2024/01/19 19:35:43;;;;;;;0.00;0.00;;;;;;;-0.08;70.41;101525.56;15671413;28;20052;-51
2024/01/19 19:43:21;;;;;;;0.30;0.30;;;;;;;-0.13;69.61;101522.47;15671825;28;20090;-49
2024/01/19 19:50:56;;;;;;;1.05;0.57;;;;;;;-0.19;70.85;101537.94;15657548;28;20124;-50
2024/01/19 19:58:31;;;;;;;0.17;0.17;;;;;;;-0.05;69.82;101542.94;15639772;28;20186;-50
2024/01/19 20:06:07;;;;;;;0.00;0.00;;;;;;;0.16;69.13;101541.25;15662959;28;20130;-51
2024/01/19 20:13:42;;;;;;;0.60;0.60;;;;;;;-0.02;68.80;101554.09;15656909;28;20045;-51
2024/01/19 20:21:15;;;;;;;0.00;0.00;;;;;;;-0.34;69.19;101569.81;15653992;28;20037;-48
2024/01/19 20:28:52;;;;;;;0.10;0.10;;;;;;;-0.56;69.23;101575.94;15659527;28;20041;-50
2024/01/19 20:36:26;;;;;;;0.00;0.00;;;;;;;-0.71;69.64;101582.34;15635087;28;20060;-50
2024/01/19 20:44:03;;;;;;;0.68;0.50;;;;;;;-0.72;69.77;101585.13;15661293;28;20131;-52
2024/01/19 20:51:37;;;;;;;0.00;0.00;;;;;;;-1.15;71.32;101585.69;15636820;28;20054;-52
2024/01/19 20:59:12;;;;;;;0.00;0.00;;;;;;;-1.18;71.31;101593.81;15658429;28;20115;-51
2024/01/19 21:06:48;;;;;;;0.00;0.00;;;;;;;-1.38;71.90;101588.22;15657932;28;20053;-53
2024/01/19 21:14:24;;;;;;;0.00;0.00;;;;;;;-1.76;72.83;101591.00;15655273;28;20037;-50
2024/01/19 21:21:59;;;;;;;0.00;0.00;;;;;;;-1.93;73.76;101599.25;15661115;28;20037;-50
2024/01/19 21:29:35;;;;;;;0.47;0.47;;;;;;;-1.81;73.15;101590.50;15649400;28;20493;-51
2024/01/19 21:37:09;;;;;;;0.00;0.00;;;;;;;-1.45;72.47;101604.56;15639495;28;20323;-50
2024/01/19 21:44:45;;;;;;;0.00;0.00;;;;;;;-1.40;72.64;101597.19;15646831;28;20049;-50
2024/01/19 21:52:21;;;;;;;0.00;0.00;;;;;;;-1.33;73.28;101599.25;15658214;28;20052;-49
2024/01/19 21:59:56;;;;;;;0.10;0.10;;;;;;;-1.45;72.68;101579.06;15657245;28;20049;-50
2024/01/19 22:07:30;;;;;;;0.00;0.00;;;;;;;-1.31;72.13;101605.28;15657348;28;20374;-53
2024/01/19 22:15:09;;;;;;;0.28;0.08;;;;;;;-1.06;71.97;101606.94;15660298;28;20111;-52
2024/01/19 22:22:43;;;;;;;0.00;0.00;;;;;;;-0.91;71.75;101628.66;15668587;28;20037;-53
2024/01/19 22:30:19;;;;;;;0.00;0.00;;;;;;;-1.29;71.91;101621.78;15662913;28;20033;-48
2024/01/19 22:37:56;;;;;;;0.00;0.00;;;;;;;-1.08;71.61;101639.59;15664179;28;20526;-51
2024/01/19 22:45:31;;;;;;;0.00;0.00;;;;;;;-1.26;72.15;101641.78;15664063;28;20041;-53
2024/01/19 22:53:08;;;;;;;1.27;0.95;;;;;;;-1.41;72.55;101640.25;15661947;28;20060;-50
2024/01/19 23:00:43;;;;;;;0.50;0.50;;;;;;;-1.37;72.02;101647.00;15666802;28;20072;-51
2024/01/19 23:08:17;;;;;;;0.00;0.00;;;;;;;-1.30;71.58;101659.63;15667173;28;20111;-54
2024/01/19 23:15:54;;;;;;;0.00;0.00;;;;;;;-1.22;71.24;101653.78;15666667;28;20056;-51
2024/01/19 23:23:30;;;;;;;0.00;0.00;;;;;;;-1.23;71.53;101667.06;15642327;28;20140;-51
2024/01/19 23:31:05;;;;;;;0.10;0.10;;;;;;;-1.10;70.59;101659.97;15664260;28;20065;-50
2024/01/19 23:38:38;;;;;;;0.00;0.00;;;;;;;-1.11;70.53;101655.66;15652871;28;20474;-53
2024/01/19 23:46:14;;;;;;;0.75;0.75;;;;;;;-1.25;70.88;101667.19;15647807;28;20055;-54
2024/01/19 23:53:47;;;;;;;0.00;0.00;;;;;;;-0.92;70.42;101658.63;15654744;28;20079;-52
